Time;durP1;ratioP1;P1;durP2;ratioP2;P2;SDS_P1;SDS_P2;PMS_P1;PMS_P2;Temp;Humidity;BMP_temperature;BMP_pressure;BME280_temperature;BME280_humidity;BME280_pressure;Samples;Min_cycle;Max_cycle;Signal;HPM_P1;HPM_P2
2023/01/16 00:01:00;;;;;;;8.93;4.78;;;5.20;99.90;;;;;;5017147;28;20104;-74
2023/01/16 00:03:26;;;;;;;8.23;3.97;;;5.20;99.90;;;;;;5035146;28;20042;-74
2023/01/16 00:05:51;;;;;;;7.32;4.32;;;5.10;99.90;;;;;;5034982;28;20037;-73
2023/01/16 00:08:17;;;;;;;6.35;4.07;;;5.20;99.90;;;;;;5017123;28;20049;-73
2023/01/16 00:10:44;;;;;;;7.93;3.97;;;5.60;99.90;;;;;;5035178;28;20490;-73
2023/01/16 00:13:11;;;;;;;6.10;3.92;;;5.20;99.90;;;;;;5017309;28;20053;-73
2023/01/16 00:15:37;;;;;;;6.97;4.78;;;5.10;99.90;;;;;;5017014;28;20091;-73
2023/01/16 00:18:02;;;;;;;6.60;4.55;;;5.10;99.90;;;;;;5034291;28;20037;-73
2023/01/16 00:20:28;;;;;;;8.35;5.05;;;5.10;99.90;;;;;;4999950;28;20049;-73
2023/01/16 00:22:54;;;;;;;10.00;4.93;;;5.10;99.90;;;;;;5032742;28;20038;-74
2023/01/16 00:25:19;;;;;;;7.97;4.85;;;5.20;99.90;;;;;;5033261;28;20132;-74
2023/01/16 00:27:45;;;;;;;8.30;5.10;;;5.90;99.90;;;;;;5033138;28;20136;-73
2023/01/16 00:30:11;;;;;;;7.70;4.50;;;5.20;99.90;;;;;;5033584;28;20096;-74
2023/01/16 00:32:36;;;;;;;7.90;4.88;;;5.20;99.90;;;;;;5033646;28;20042;-74
2023/01/16 00:35:03;;;;;;;8.20;4.47;;;5.20;99.90;;;;;;5034154;28;20033;-74
2023/01/16 00:37:29;;;;;;;7.82;5.28;;;5.10;99.90;;;;;;5034887;28;20472;-74
2023/01/16 00:39:54;;;;;;;7.75;4.57;;;6.50;99.90;;;;;;5034086;28;20121;-73
2023/01/16 00:42:20;;;;;;;8.68;4.35;;;5.10;99.90;;;;;;5031362;28;20048;-73
2023/01/16 00:44:46;;;;;;;6.93;4.50;;;5.40;99.90;;;;;;5032752;28;20104;-73
2023/01/16 00:47:11;;;;;;;10.60;4.70;;;5.50;99.90;;;;;;5032418;28;20049;-74
2023/01/16 00:49:37;;;;;;;9.23;4.63;;;5.00;99.90;;;;;;5000030;28;20044;-73
2023/01/16 00:52:03;;;;;;;6.97;4.35;;;4.90;99.90;;;;;;5032808;28;20125;-74
2023/01/16 00:54:28;;;;;;;7.10;4.25;;;4.90;99.90;;;;;;5031884;28;20041;-73
2023/01/16 00:56:54;;;;;;;8.57;4.60;;;4.90;99.90;;;;;;5016541;28;20095;-73
2023/01/16 00:59:20;;;;;;;8.93;4.20;;;4.80;99.90;;;;;;5015014;28;20038;-73
2023/01/16 01:01:45;;;;;;;7.32;3.80;;;4.80;99.90;;;;;;5032663;28;20033;-73
2023/01/16 01:04:12;;;;;;;6.78;4.03;;;4.70;99.90;;;;;;5015760;28;20564;-73
2023/01/16 01:06:38;;;;;;;10.10;4.93;;;4.70;99.90;;;;;;5033042;28;20443;-73
2023/01/16 01:09:04;;;;;;;9.60;4.07;;;4.60;99.90;;;;;;5033772;28;20042;-73
2023/01/16 01:11:29;;;;;;;6.93;4.63;;;4.50;99.90;;;;;;5032706;28;20045;-73
2023/01/16 01:13:55;;;;;;;8.13;4.05;;;4.50;99.90;;;;;;5033772;28;20045;-73
2023/01/16 01:16:21;;;;;;;9.50;4.10;;;4.40;99.90;;;;;;5033893;28;20116;-73
2023/01/16 01:18:46;;;;;;;10.40;4.00;;;4.40;99.90;;;;;;5019349;28;20403;-73
2023/01/16 01:21:12;;;;;;;6.13;3.60;;;4.40;99.90;;;;;;4994342;28;20038;-74
2023/01/16 01:23:37;;;;;;;8.15;3.60;;;4.40;99.90;;;;;;5013206;28;20465;-73
2023/01/16 01:26:12;;;;;;;7.00;3.53;;;4.50;99.90;;;;;;5025375;28;20482;-73
2023/01/16 01:28:37;;;;;;;6.65;3.58;;;4.40;99.90;;;;;;5016054;28;20367;-73
2023/01/16 01:31:09;;;;;;;7.40;3.15;;;4.40;99.90;;;;;;5033599;28;20044;-73
2023/01/16 01:33:35;;;;;;;7.38;3.35;;;4.50;99.90;;;;;;5033547;28;20052;-73
2023/01/16 01:36:02;;;;;;;7.18;3.67;;;4.80;99.90;;;;;;5032364;28;20056;-73
2023/01/16 01:38:29;;;;;;;7.07;3.55;;;4.60;99.90;;;;;;5033421;28;20088;-73
2023/01/16 01:40:54;;;;;;;7.90;3.35;;;5.70;99.90;;;;;;5033323;28;20371;-73
2023/01/16 01:43:20;;;;;;;6.65;3.00;;;4.60;99.90;;;;;;5032733;28;20056;-73
2023/01/16 01:45:51;;;;;;;7.00;3.47;;;4.60;99.90;;;;;;5015080;28;20112;-73
2023/01/16 01:48:17;;;;;;;7.53;3.55;;;5.40;99.90;;;;;;5015555;28;20140;-73
2023/01/16 01:50:48;;;;;;;7.72;3.50;;;5.50;99.90;;;;;;5032174;28;20136;-73
2023/01/16 01:53:22;;;;;;;7.30;3.55;;;4.50;99.90;;;;;;5032637;28;20445;-74
2023/01/16 01:55:49;;;;;;;5.40;3.22;;;5.70;99.90;;;;;;5031972;28;20069;-73
2023/01/16 01:58:21;;;;;;;7.75;3.28;;;4.50;99.90;;;;;;5032706;28;20049;-74
2023/01/16 02:00:50;;;;;;;8.82;3.15;;;4.50;99.90;;;;;;5019059;28;20052;-73
2023/01/16 02:03:25;;;;;;;5.93;2.80;;;4.50;99.90;;;;;;5032468;28;20108;-73
2023/01/16 02:05:54;;;;;;;8.40;3.28;;;4.50;99.90;;;;;;5032946;28;20083;-73
2023/01/16 02:08:24;;;;;;;7.07;3.17;;;4.50;99.90;;;;;;5032973;28;20100;-74
2023/01/16 02:11:26;;;;;;;7.72;2.92;;;4.50;99.90;;;;;;5031532;28;20044;-73
2023/01/16 02:14:01;;;;;;;6.93;3.13;;;5.80;99.90;;;;;;5033029;28;20041;-74
2023/01/16 02:19:26;;;;;;;5.65;2.78;;;4.40;99.90;;;;;;5013833;28;20050;-73
2023/01/16 02:22:10;;;;;;;5.80;3.10;;;4.70;99.90;;;;;;5028487;28;20423;-73
2023/01/16 02:25:12;;;;;;;9.32;3.35;;;4.40;99.90;;;;;;5003306;28;20082;-73
2023/01/16 02:27:50;;;;;;;6.32;2.92;;;4.40;99.90;;;;;;4993576;28;20054;-73
2023/01/16 02:31:01;;;;;;;9.05;3.45;;;4.50;99.90;;;;;;4993771;28;20473;-74
2023/01/16 02:33:51;;;;;;;8.90;3.40;;;4.50;99.90;;;;;;4975921;28;20053;-73
2023/01/16 02:36:31;;;;;;;8.40;3.30;;;4.50;99.90;;;;;;4959963;28;20046;-73
2023/01/16 02:39:26;;;;;;;8.90;3.45;;;4.50;99.90;;;;;;5005298;28;20402;-73
2023/01/16 02:42:01;;;;;;;7.53;3.45;;;4.50;99.90;;;;;;5012784;28;20120;-74
2023/01/16 02:44:38;;;;;;;8.32;3.15;;;5.60;99.90;;;;;;5011168;28;20491;-73
2023/01/16 02:47:15;;;;;;;5.05;3.22;;;4.60;99.90;;;;;;5020673;28;20532;-74
2023/01/16 02:49:46;;;;;;;9.75;3.08;;;4.60;99.90;;;;;;5011517;28;20046;-74
2023/01/16 02:52:32;;;;;;;8.02;3.55;;;4.60;99.90;;;;;;5012689;28;20092;-73
2023/01/16 02:55:03;;;;;;;9.88;3.75;;;4.60;99.90;;;;;;5010959;28;20045;-73
2023/01/16 02:57:35;;;;;;;8.73;3.67;;;4.60;99.90;;;;;;5013197;28;20054;-73
2023/01/16 03:00:04;;;;;;;9.00;3.70;;;5.50;99.90;;;;;;5015548;28;20038;-73
2023/01/16 03:02:29;;;;;;;9.57;3.08;;;4.60;99.90;;;;;;5015266;28;20413;-73
2023/01/16 03:04:55;;;;;;;6.28;3.05;;;5.20;99.90;;;;;;5015973;28;20038;-73
2023/01/16 03:07:40;;;;;;;7.40;3.35;;;4.70;99.90;;;;;;5016193;28;20104;-73
2023/01/16 03:10:24;;;;;;;8.95;3.30;;;4.70;99.90;;;;;;5016106;28;20038;-73
2023/01/16 03:13:11;;;;;;;9.88;3.42;;;4.70;99.90;;;;;;5014742;28;20050;-73
2023/01/16 03:15:54;;;;;;;7.90;3.30;;;4.70;99.90;;;;;;5013992;28;20128;-73
2023/01/16 03:18:31;;;;;;;9.55;3.22;;;4.70;99.90;;;;;;5014263;28;20034;-73
2023/01/16 03:21:10;;;;;;;8.32;2.90;;;4.70;99.90;;;;;;5016085;28;20045;-73
2023/01/16 03:23:51;;;;;;;9.73;3.40;;;4.70;99.90;;;;;;5015547;28;20042;-73
2023/01/16 03:26:24;;;;;;;7.68;3.40;;;4.70;99.90;;;;;;5037663;28;20078;-73
2023/01/16 03:29:14;;;;;;;9.20;3.28;;;4.70;99.90;;;;;;5037863;28;20041;-73
2023/01/16 03:31:53;;;;;;;7.45;3.22;;;4.70;99.90;;;;;;5037980;28;20342;-73
2023/01/16 03:34:38;;;;;;;9.68;4.22;;;4.80;99.90;;;;;;5055354;28;20060;-73
2023/01/16 03:37:11;;;;;;;5.55;3.53;;;4.70;99.90;;;;;;5034522;28;20069;-73
2023/01/16 03:39:42;;;;;;;8.88;3.42;;;4.70;99.90;;;;;;5036048;28;20049;-74
2023/01/16 03:42:12;;;;;;;8.30;3.40;;;4.70;99.90;;;;;;5055093;28;20056;-73
2023/01/16 03:44:42;;;;;;;9.15;3.58;;;4.60;99.90;;;;;;5038137;28;20502;-73
2023/01/16 03:47:18;;;;;;;7.53;3.20;;;4.60;99.90;;;;;;5037879;28;20427;-73
2023/01/16 03:49:48;;;;;;;7.00;3.03;;;4.60;99.90;;;;;;5037509;28;20095;-73
2023/01/16 03:52:17;;;;;;;6.90;3.30;;;5.90;99.90;;;;;;5034529;28;20454;-73
2023/01/16 03:54:56;;;;;;;7.50;3.50;;;5.60;99.90;;;;;;5033912;28;20053;-73
2023/01/16 03:57:30;;;;;;;6.35;3.70;;;4.60;99.90;;;;;;5035145;28;20042;-74
2023/01/16 03:59:58;;;;;;;11.05;3.75;;;4.50;99.90;;;;;;5054615;28;20612;-73
2023/01/16 04:02:43;;;;;;;6.47;3.25;;;4.50;99.90;;;;;;5036448;28;20052;-73
2023/01/16 04:05:37;;;;;;;10.00;3.63;;;5.30;99.90;;;;;;5028367;28;20536;-73
2023/01/16 04:08:13;;;;;;;9.65;3.30;;;4.40;99.90;;;;;;5035358;28;20042;-74
2023/01/16 04:10:42;;;;;;;8.98;4.18;;;4.50;99.90;;;;;;5035491;28;20489;-72
2023/01/16 04:13:12;;;;;;;6.30;3.20;;;4.60;99.90;;;;;;5054869;28;20064;-73
2023/01/16 04:15:42;;;;;;;9.70;3.58;;;4.60;99.90;;;;;;5055084;28;20045;-73
2023/01/16 04:18:08;;;;;;;8.63;3.60;;;5.20;99.90;;;;;;5028031;28;20041;-73
2023/01/16 04:20:37;;;;;;;9.20;3.90;;;4.70;99.90;;;;;;5017334;28;20504;-73
2023/01/16 04:23:02;;;;;;;8.48;4.00;;;6.00;99.90;;;;;;5054750;28;20130;-73
2023/01/16 04:25:28;;;;;;;6.95;3.75;;;5.60;99.90;;;;;;5054651;28;20535;-73
2023/01/16 04:27:54;;;;;;;7.15;3.72;;;4.70;99.90;;;;;;5054699;28;20128;-73
2023/01/16 04:30:19;;;;;;;6.68;3.80;;;4.80;99.90;;;;;;5055190;28;20156;-73
2023/01/16 04:32:45;;;;;;;8.88;3.53;;;4.70;99.90;;;;;;5036492;28;20102;-73
2023/01/16 04:35:11;;;;;;;6.65;3.47;;;4.70;99.90;;;;;;5053354;28;20037;-75
2023/01/16 04:37:36;;;;;;;7.40;3.90;;;5.20;99.90;;;;;;5036606;28;20047;-73
2023/01/16 04:40:03;;;;;;;10.18;3.90;;;5.70;99.90;;;;;;5036914;28;20480;-73
2023/01/16 04:42:29;;;;;;;10.52;4.10;;;4.60;99.90;;;;;;5032641;28;20047;-73
2023/01/16 04:44:55;;;;;;;7.63;4.32;;;5.70;99.90;;;;;;5041552;28;20111;-73
2023/01/16 04:47:20;;;;;;;7.50;3.80;;;4.60;99.90;;;;;;5016216;28;20501;-73
2023/01/16 04:49:46;;;;;;;10.35;4.47;;;4.50;99.90;;;;;;5034383;28;20046;-73
2023/01/16 04:52:12;;;;;;;8.32;4.28;;;4.60;99.90;;;;;;5034472;28;20052;-74
2023/01/16 04:54:38;;;;;;;9.00;4.32;;;4.50;99.90;;;;;;5032904;28;20529;-73
2023/01/16 04:57:04;;;;;;;10.60;4.43;;;4.60;99.90;;;;;;5034379;28;20049;-73
2023/01/16 04:59:30;;;;;;;7.93;4.40;;;4.60;99.90;;;;;;5034301;28;20044;-73
2023/01/16 05:01:56;;;;;;;8.77;4.28;;;4.60;99.90;;;;;;5032915;28;20049;-73
2023/01/16 05:04:22;;;;;;;11.93;4.90;;;4.70;99.90;;;;;;5047158;28;20182;-73
2023/01/16 05:06:48;;;;;;;8.93;5.07;;;4.60;99.90;;;;;;5045890;28;20521;-73
2023/01/16 05:09:13;;;;;;;8.80;5.10;;;4.60;99.90;;;;;;5048842;28;20076;-73
2023/01/16 05:11:39;;;;;;;9.15;5.63;;;5.80;99.90;;;;;;5034086;28;20041;-73
2023/01/16 05:14:08;;;;;;;8.57;5.32;;;4.60;99.90;;;;;;5052640;28;20157;-74
2023/01/16 05:16:38;;;;;;;10.68;5.63;;;4.60;99.90;;;;;;5032369;28;20037;-73
2023/01/16 05:19:04;;;;;;;11.00;6.10;;;4.60;99.90;;;;;;5039746;28;20042;-73
2023/01/16 05:21:30;;;;;;;11.70;6.10;;;4.60;99.90;;;;;;5031488;28;20071;-73
2023/01/16 05:23:55;;;;;;;10.35;6.30;;;4.60;99.90;;;;;;5026233;28;20065;-73
2023/01/16 05:26:21;;;;;;;9.70;5.85;;;4.50;99.90;;;;;;5033826;28;20055;-73
2023/01/16 05:28:47;;;;;;;11.35;6.00;;;4.50;99.90;;;;;;5033849;28;20049;-74
2023/01/16 05:31:12;;;;;;;12.00;6.38;;;4.50;99.90;;;;;;5033608;28;20121;-73
2023/01/16 05:33:38;;;;;;;9.35;6.30;;;4.50;99.90;;;;;;5033494;28;20077;-73
2023/01/16 05:36:04;;;;;;;15.30;7.05;;;4.50;99.90;;;;;;5032144;28;20045;-74
2023/01/16 05:38:29;;;;;;;12.98;6.55;;;4.40;99.90;;;;;;5047196;28;20041;-73
2023/01/16 05:40:55;;;;;;;11.77;6.97;;;4.40;99.90;;;;;;5035560;28;20075;-74
2023/01/16 05:43:21;;;;;;;13.27;7.10;;;4.30;99.90;;;;;;5031562;28;20490;-74
2023/01/16 05:45:46;;;;;;;13.45;7.35;;;4.30;99.90;;;;;;5050474;28;20116;-73
2023/01/16 05:48:12;;;;;;;13.15;7.18;;;4.30;99.90;;;;;;5044984;28;20112;-75
2023/01/16 05:50:38;;;;;;;13.63;7.50;;;4.20;99.90;;;;;;5030932;28;20102;-72
2023/01/16 05:53:03;;;;;;;14.23;8.65;;;4.20;99.90;;;;;;5042795;28;20041;-72
2023/01/16 05:55:29;;;;;;;12.52;8.05;;;4.20;99.90;;;;;;5053270;28;20515;-72
2023/01/16 05:57:55;;;;;;;17.20;8.85;;;4.20;99.90;;;;;;5040003;28;20052;-72
2023/01/16 06:00:22;;;;;;;16.80;8.18;;;5.50;99.90;;;;;;5045490;28;20041;-72
2023/01/16 06:02:48;;;;;;;14.10;8.15;;;4.10;99.90;;;;;;5041456;28;20049;-72
2023/01/16 06:05:14;;;;;;;16.13;8.38;;;5.20;99.90;;;;;;5033052;28;20122;-72
2023/01/16 06:07:41;;;;;;;15.20;8.93;;;4.00;99.90;;;;;;5034749;28;20047;-72
2023/01/16 06:10:09;;;;;;;20.45;8.80;;;4.10;99.90;;;;;;5053188;28;20409;-72
2023/01/16 06:12:34;;;;;;;13.50;9.30;;;4.10;99.90;;;;;;5052816;28;20041;-72
2023/01/16 06:15:00;;;;;;;14.50;8.98;;;4.90;99.90;;;;;;5034868;28;20037;-72
2023/01/16 06:17:25;;;;;;;16.67;9.57;;;4.20;99.90;;;;;;5034797;28;20037;-72
2023/01/16 06:19:51;;;;;;;16.48;9.35;;;4.20;99.90;;;;;;5034878;28;20497;-72
2023/01/16 06:22:17;;;;;;;14.90;9.40;;;4.90;99.90;;;;;;5052547;28;20048;-72
2023/01/16 06:24:42;;;;;;;16.75;9.52;;;4.10;99.90;;;;;;5052508;28;20049;-72
2023/01/16 06:27:08;;;;;;;17.23;9.93;;;4.10;99.90;;;;;;5051929;28;20056;-72
2023/01/16 06:29:34;;;;;;;13.27;9.38;;;5.10;99.90;;;;;;5034103;28;20045;-72
2023/01/16 06:32:00;;;;;;;16.75;10.10;;;4.00;99.90;;;;;;5035023;28;20493;-73
2023/01/16 06:34:26;;;;;;;16.73;10.15;;;4.10;99.90;;;;;;5056621;28;20044;-73
2023/01/16 06:36:51;;;;;;;17.35;9.85;;;4.10;99.90;;;;;;5038743;28;20049;-73
2023/01/16 06:39:17;;;;;;;15.88;10.43;;;4.10;99.90;;;;;;5048995;28;20068;-73
2023/01/16 06:41:43;;;;;;;17.48;11.07;;;4.40;99.90;;;;;;5037276;28;20394;-73
2023/01/16 06:44:09;;;;;;;17.92;10.90;;;4.10;99.90;;;;;;5036775;28;20049;-73
2023/01/16 06:46:35;;;;;;;18.35;10.90;;;4.20;99.90;;;;;;5035496;28;20037;-73
2023/01/16 06:49:01;;;;;;;18.10;11.02;;;4.20;99.90;;;;;;5036716;28;20128;-72
2023/01/16 06:51:26;;;;;;;18.13;11.18;;;5.20;99.90;;;;;;5037270;28;20100;-76
2023/01/16 06:53:52;;;;;;;17.10;10.77;;;4.20;99.90;;;;;;5034952;28;20132;-75
2023/01/16 06:56:18;;;;;;;16.92;10.52;;;5.00;99.90;;;;;;5021959;28;20479;-76
2023/01/16 06:58:44;;;;;;;19.50;10.23;;;5.40;99.90;;;;;;5038605;28;20044;-75
2023/01/16 07:01:10;;;;;;;17.45;9.95;;;4.10;99.90;;;;;;5021461;28;20541;-76
2023/01/16 07:03:36;;;;;;;17.55;9.35;;;4.10;99.90;;;;;;5037998;28;20118;-76
2023/01/16 07:06:02;;;;;;;19.17;9.88;;;4.00;99.90;;;;;;5055807;28;20128;-75
2023/01/16 07:08:28;;;;;;;18.30;9.80;;;4.00;99.90;;;;;;5038275;28;20102;-76
2023/01/16 07:10:58;;;;;;;16.08;9.43;;;4.00;99.90;;;;;;5037491;28;20049;-76
2023/01/16 07:13:27;;;;;;;15.73;9.05;;;5.30;99.90;;;;;;5038243;28;20144;-76
2023/01/16 07:24:14;;;;;;;16.30;8.07;;;5.20;99.90;;;;;;5035818;28;20057;-76
2023/01/16 07:26:45;;;;;;;16.35;8.70;;;3.90;99.90;;;;;;5034191;28;20438;-76
2023/01/16 07:29:11;;;;;;;15.90;8.13;;;3.80;99.90;;;;;;5035640;28;20500;-76
2023/01/16 07:31:37;;;;;;;14.60;8.02;;;3.80;99.90;;;;;;5033480;28;20040;-77
2023/01/16 07:34:02;;;;;;;16.02;8.23;;;4.90;99.90;;;;;;5053657;28;20123;-76
2023/01/16 07:36:28;;;;;;;16.75;8.68;;;3.80;99.90;;;;;;5054990;28;20052;-77
2023/01/16 07:38:54;;;;;;;16.23;9.10;;;3.80;99.90;;;;;;5035947;28;20501;-77
2023/01/16 07:41:19;;;;;;;15.73;8.63;;;3.90;99.90;;;;;;5034759;28;20107;-77
2023/01/16 07:43:45;;;;;;;16.15;8.75;;;5.40;99.90;;;;;;5035540;28;20041;-76
2023/01/16 07:46:11;;;;;;;15.18;8.57;;;4.20;99.90;;;;;;5054519;28;20072;-77
2023/01/16 07:48:36;;;;;;;14.02;9.05;;;3.80;99.90;;;;;;5055271;28;20040;-76
2023/01/16 07:51:02;;;;;;;13.45;8.55;;;3.80;99.90;;;;;;5037225;28;20500;-77
2023/01/16 07:53:29;;;;;;;16.55;8.98;;;3.80;99.90;;;;;;5037089;28;20106;-76
2023/01/16 07:55:57;;;;;;;15.25;8.27;;;3.80;99.90;;;;;;5036618;28;20435;-75
2023/01/16 07:58:23;;;;;;;15.82;8.52;;;3.80;99.90;;;;;;5037024;28;20080;-75
2023/01/16 08:00:51;;;;;;;16.42;8.63;;;3.80;99.90;;;;;;5037130;28;20048;-77
2023/01/16 08:03:17;;;;;;;12.57;8.15;;;4.40;99.90;;;;;;5054270;28;20492;-77
2023/01/16 08:05:43;;;;;;;15.43;8.32;;;3.70;99.90;;;;;;5045294;28;20041;-77
2023/01/16 08:08:09;;;;;;;13.13;7.65;;;3.80;99.90;;;;;;5036440;28;20053;-77
2023/01/16 08:10:35;;;;;;;14.73;7.80;;;3.80;99.90;;;;;;5054746;28;20049;-76
2023/01/16 08:13:01;;;;;;;12.60;7.35;;;5.20;99.90;;;;;;5036665;28;20378;-75
2023/01/16 08:15:27;;;;;;;12.18;6.90;;;3.80;99.90;;;;;;5054462;28;20402;-75
2023/01/16 08:17:52;;;;;;;16.92;7.72;;;3.80;99.90;;;;;;5019672;28;20405;-74
2023/01/16 08:20:18;;;;;;;14.13;7.55;;;3.80;99.90;;;;;;5053216;28;20596;-74
2023/01/16 08:22:45;;;;;;;14.88;7.57;;;3.80;99.90;;;;;;5050591;28;20041;-75
2023/01/16 08:25:12;;;;;;;12.57;7.22;;;5.40;99.90;;;;;;5033289;28;20128;-74
2023/01/16 08:27:38;;;;;;;12.85;7.60;;;3.80;99.90;;;;;;5034249;28;20492;-75
2023/01/16 08:30:05;;;;;;;13.13;7.28;;;3.70;99.90;;;;;;5016711;28;20052;-73
2023/01/16 08:32:30;;;;;;;13.73;6.68;;;3.80;99.90;;;;;;5018318;28;20049;-76
2023/01/16 08:34:56;;;;;;;14.68;7.50;;;3.80;99.90;;;;;;5020224;28;20055;-76
2023/01/16 08:37:22;;;;;;;11.75;7.03;;;4.30;99.90;;;;;;5020040;28;20045;-76
2023/01/16 08:39:47;;;;;;;11.93;6.95;;;3.80;99.90;;;;;;5053871;28;20041;-74
2023/01/16 08:53:10;;;;;;;14.07;8.50;;;5.30;99.90;;;;;;5053746;28;20095;-77
2023/01/16 08:55:36;;;;;;;12.73;7.55;;;4.00;99.90;;;;;;5031995;28;20073;-77
2023/01/16 08:58:02;;;;;;;17.52;8.23;;;4.00;99.90;;;;;;5035137;28;20128;-77
2023/01/16 09:00:28;;;;;;;11.02;7.38;;;4.20;99.90;;;;;;5035553;28;20120;-78
2023/01/16 09:02:57;;;;;;;12.60;7.47;;;4.20;99.90;;;;;;5052291;28;20045;-76
2023/01/16 09:05:23;;;;;;;14.02;7.03;;;4.20;99.90;;;;;;5017930;28;20076;-77
2023/01/16 09:07:48;;;;;;;14.32;8.70;;;4.30;99.90;;;;;;5018475;28;20091;-78
2023/01/16 09:10:14;;;;;;;12.95;8.80;;;5.10;99.90;;;;;;5049779;28;20076;-78
2023/01/16 09:15:25;;;;;;;16.58;8.32;;;4.60;99.90;;;;;;5049927;28;20444;-77
2023/01/16 09:17:51;;;;;;;13.65;8.30;;;4.70;99.90;;;;;;5051951;28;20033;-78
2023/01/16 09:20:16;;;;;;;13.57;8.15;;;5.20;99.90;;;;;;5035208;28;20094;-78
2023/01/16 09:22:42;;;;;;;14.23;8.13;;;4.30;99.90;;;;;;5052956;28;20055;-77
2023/01/16 09:25:08;;;;;;;13.50;8.05;;;4.30;99.90;;;;;;5031294;28;20057;-78
2023/01/16 09:27:34;;;;;;;12.25;7.32;;;4.30;99.90;;;;;;5033299;28;20050;-78
2023/01/16 09:30:00;;;;;;;15.13;7.75;;;5.10;99.90;;;;;;5035349;28;20087;-78
2023/01/16 09:32:26;;;;;;;12.18;7.38;;;4.60;99.90;;;;;;5051277;28;20422;-76
2023/01/16 09:34:52;;;;;;;12.13;6.95;;;4.40;99.90;;;;;;5032801;28;20469;-78
2023/01/16 09:37:18;;;;;;;12.32;7.38;;;4.40;99.90;;;;;;5031565;28;20049;-78
2023/01/16 09:39:44;;;;;;;10.50;6.25;;;4.40;99.90;;;;;;5034518;28;20037;-77
2023/01/16 09:45:29;;;;;;;;;;;4.50;99.90;;;;;;5052975;28;20075;-78
2023/01/16 09:48:00;;;;;;;11.57;6.13;;;4.50;99.90;;;;;;5045314;28;19924;-78
2023/01/16 09:50:31;;;;;;;10.43;6.45;;;4.50;99.90;;;;;;5031885;28;20437;-78
2023/01/16 09:58:39;;;;;;;10.23;5.75;;;4.50;99.90;;;;;;5052518;28;20049;-79
2023/01/16 10:01:27;;;;;;;11.30;5.88;;;4.90;99.90;;;;;;5034905;28;20121;-79
2023/01/16 10:04:12;;;;;;;10.38;5.72;;;4.50;99.90;;;;;;5050573;28;20043;-79
2023/01/16 10:06:52;;;;;;;10.43;5.97;;;4.50;99.90;;;;;;5034037;28;20045;-79
2023/01/16 10:09:29;;;;;;;12.10;5.68;;;4.60;99.90;;;;;;5034379;28;20509;-79
2023/01/16 10:12:03;;;;;;;10.00;5.63;;;6.20;99.90;;;;;;5050884;28;20405;-79
2023/01/16 10:14:43;;;;;;;8.60;5.50;;;4.70;99.90;;;;;;5033579;28;20075;-79
2023/01/16 10:17:27;;;;;;;9.73;5.07;;;4.70;99.90;;;;;;5034219;28;20052;-76
2023/01/16 10:20:23;;;;;;;8.25;6.10;;;4.60;99.90;;;;;;5052412;28;20045;-77
2023/01/16 10:23:22;;;;;;;10.85;5.80;;;4.60;99.90;;;;;;5034355;28;20041;-77
2023/01/16 10:26:26;;;;;;;10.98;6.05;;;4.70;99.90;;;;;;5033701;28;20457;-78
2023/01/16 10:29:28;;;;;;;12.05;5.68;;;4.70;99.90;;;;;;5005770;28;20064;-78
2023/01/16 10:32:03;;;;;;;9.00;4.97;;;4.60;99.90;;;;;;5052132;28;20041;-77
2023/01/16 10:34:39;;;;;;;9.82;5.00;;;4.60;99.90;;;;;;5052284;28;20418;-78
2023/01/16 10:37:05;;;;;;;7.78;4.38;;;4.60;99.90;;;;;;5034486;28;20053;-78
2023/01/16 10:39:33;;;;;;;9.15;4.53;;;6.00;99.90;;;;;;5050492;28;20045;-78
2023/01/16 10:50:35;;;;;;;9.25;4.50;;;4.60;99.90;;;;;;5034389;28;20439;-79
2023/01/16 10:53:02;;;;;;;11.30;4.20;;;4.60;99.90;;;;;;5049583;28;20063;-70
2023/01/16 10:55:29;;;;;;;8.10;4.18;;;4.60;99.90;;;;;;5049099;28;20493;-70
2023/01/16 10:57:57;;;;;;;7.50;4.10;;;5.40;99.90;;;;;;5035410;28;20049;-70
2023/01/16 11:00:39;;;;;;;8.63;4.40;;;4.60;99.90;;;;;;5028928;28;20045;-70
2023/01/16 11:03:27;;;;;;;7.72;4.13;;;4.60;99.90;;;;;;5027481;28;20045;-70
2023/01/16 11:06:13;;;;;;;7.82;3.58;;;4.90;99.90;;;;;;5014352;28;20079;-70
2023/01/16 11:08:45;;;;;;;7.75;3.88;;;4.60;99.90;;;;;;5048844;28;20429;-70
2023/01/16 11:19:43;;;;;;;3.85;2.55;;;5.50;99.90;;;;;;5047845;28;20084;-71
2023/01/16 11:22:27;;;;;;;3.85;2.40;;;4.20;99.90;;;;;;5052807;28;20045;-71
2023/01/16 11:25:01;;;;;;;5.30;2.72;;;5.00;99.90;;;;;;5041353;28;20093;-70
2023/01/16 11:27:34;;;;;;;5.30;2.85;;;4.00;99.90;;;;;;5031905;28;20053;-72
2023/01/16 11:30:04;;;;;;;5.15;2.90;;;4.50;99.90;;;;;;5031167;28;20065;-73
2023/01/16 11:32:34;;;;;;;5.53;3.00;;;4.00;99.90;;;;;;5032047;28;20041;-70
2023/01/16 11:35:00;;;;;;;5.05;2.97;;;4.00;99.90;;;;;;5011059;28;20054;-72
2023/01/16 11:37:28;;;;;;;4.90;2.30;;;4.30;99.90;;;;;;4994659;28;20042;-70
2023/01/16 11:39:57;;;;;;;7.72;3.00;;;3.90;99.90;;;;;;5022098;28;20049;-70
2023/01/16 11:48:27;;;;;;;5.88;3.22;;;3.80;99.90;;;;;;5031214;28;20045;-71
2023/01/16 11:50:55;;;;;;;5.40;3.10;;;3.90;99.90;;;;;;5033326;28;20053;-71
2023/01/16 11:53:21;;;;;;;7.13;2.85;;;3.80;99.90;;;;;;4998213;28;20094;-71
2023/01/16 11:56:26;;;;;;;5.30;3.30;;;3.90;99.90;;;;;;5034361;28;20108;-71
2023/01/16 11:59:07;;;;;;;6.15;3.20;;;3.90;99.90;;;;;;5004075;28;20099;-71
2023/01/16 12:02:19;;;;;;;6.20;3.40;;;3.80;99.90;;;;;;5032917;28;20042;-71
2023/01/16 12:08:11;;;;;;;4.20;2.58;;;4.60;99.90;;;;;;5034270;28;20459;-71
2023/01/16 12:11:01;;;;;;;4.60;2.78;;;3.90;99.90;;;;;;5034726;28;20089;-71
2023/01/16 12:17:02;;;;;;;5.05;2.72;;;3.90;99.90;;;;;;5014468;28;20124;-70
2023/01/16 12:19:40;;;;;;;;;;;3.90;99.90;;;;;;5016607;28;20055;-71
2023/01/16 12:22:20;;;;;;;5.15;2.58;;;3.90;99.90;;;;;;5032949;28;19975;-71
2023/01/16 12:25:07;;;;;;;5.45;2.78;;;3.90;99.90;;;;;;5014915;28;20049;-71
2023/01/16 12:27:56;;;;;;;6.00;2.78;;;3.90;99.90;;;;;;5034027;28;20054;-71
2023/01/16 12:30:21;;;;;;;4.25;2.78;;;4.00;99.90;;;;;;5033854;28;20507;-70
2023/01/16 12:33:13;;;;;;;3.72;2.50;;;4.20;99.90;;;;;;5016269;28;20049;-71
2023/01/16 12:35:58;;;;;;;4.85;2.88;;;3.90;99.90;;;;;;5027138;28;20352;-70
2023/01/16 12:38:35;;;;;;;4.78;2.47;;;3.90;99.90;;;;;;4996839;28;20045;-70
2023/01/16 12:44:10;;;;;;;4.85;2.88;;;3.90;99.90;;;;;;5016254;28;20049;-71
2023/01/16 12:47:06;;;;;;;4.93;3.20;;;3.90;99.90;;;;;;4999474;28;20080;-71
2023/01/16 12:50:17;;;;;;;5.40;2.92;;;3.90;99.90;;;;;;4996168;28;20152;-71
2023/01/16 12:52:55;;;;;;;4.78;2.80;;;4.00;99.90;;;;;;5012623;28;20581;-70
2023/01/16 12:55:37;;;;;;;5.00;2.58;;;4.00;99.90;;;;;;5028018;28;20049;-70
2023/01/16 12:58:15;;;;;;;5.60;2.90;;;4.00;99.90;;;;;;5013538;28;20053;-70
2023/01/16 13:01:11;;;;;;;4.50;3.15;;;4.00;99.90;;;;;;5031791;28;20103;-69
2023/01/16 13:03:43;;;;;;;7.47;3.28;;;4.00;99.90;;;;;;4997981;28;20060;-70
2023/01/16 13:06:16;;;;;;;5.15;3.00;;;4.10;99.90;;;;;;5015898;28;20053;-70
2023/01/16 13:08:51;;;;;;;4.53;2.90;;;4.10;99.90;;;;;;4999772;28;20041;-70
2023/01/16 13:14:11;;;;;;;5.22;3.33;;;4.10;99.90;;;;;;5030904;28;20079;-69
2023/01/16 13:16:41;;;;;;;5.82;3.47;;;4.10;99.90;;;;;;5032759;28;20042;-69
2023/01/16 13:19:16;;;;;;;5.13;3.28;;;4.10;99.90;;;;;;5033070;28;20108;-70
2023/01/16 13:22:19;;;;;;;6.22;3.50;;;4.20;99.90;;;;;;5012483;28;20146;-73
2023/01/16 13:25:04;;;;;;;5.63;3.33;;;4.20;99.90;;;;;;5020011;28;20076;-69
2023/01/16 13:27:43;;;;;;;6.85;3.60;;;4.20;99.90;;;;;;5051867;28;20045;-69
2023/01/16 13:30:19;;;;;;;5.28;3.30;;;5.70;99.90;;;;;;5050264;28;20086;-69
2023/01/16 13:32:57;;;;;;;6.22;3.42;;;4.20;99.90;;;;;;5018325;28;20427;-69
2023/01/16 13:35:53;;;;;;;4.95;3.50;;;4.30;99.90;;;;;;5031249;28;20060;-77
2023/01/16 13:38:44;;;;;;;5.57;2.95;;;4.30;99.90;;;;;;5031582;28;20052;-78
2023/01/16 13:41:30;;;;;;;6.07;3.80;;;4.40;99.90;;;;;;5031651;28;20099;-76
2023/01/16 13:46:51;;;;;;;6.60;4.45;;;4.30;99.90;;;;;;5032913;28;20050;-76
2023/01/16 13:49:24;;;;;;;5.72;3.50;;;5.30;99.90;;;;;;5032969;28;20148;-76
2023/01/16 13:51:52;;;;;;;5.45;3.72;;;4.40;99.90;;;;;;5031572;28;20049;-76
2023/01/16 13:54:24;;;;;;;5.18;3.60;;;4.40;99.90;;;;;;5028633;28;20068;-76
2023/01/16 13:57:00;;;;;;;7.30;3.97;;;5.80;99.90;;;;;;5032305;28;20387;-79
2023/01/16 13:59:48;;;;;;;4.85;3.30;;;4.50;99.90;;;;;;5032491;28;20382;-76
2023/01/16 14:02:36;;;;;;;7.28;3.70;;;4.50;99.90;;;;;;5032478;28;20056;-76
2023/01/16 14:05:20;;;;;;;5.53;3.42;;;4.50;99.90;;;;;;5032667;28;20041;-76
2023/01/16 14:10:46;;;;;;;5.20;3.78;;;4.50;99.90;;;;;;5032588;28;20457;-76
2023/01/16 14:13:23;;;;;;;7.18;3.42;;;4.50;99.90;;;;;;5014524;28;20045;-77
2023/01/16 14:18:41;;;;;;;4.75;3.47;;;4.50;99.90;;;;;;5032546;28;20136;-77
2023/01/16 14:21:22;;;;;;;4.72;3.05;;;4.80;99.90;;;;;;5050567;28;20075;-77
2023/01/16 14:24:02;;;;;;;5.43;3.60;;;4.60;99.90;;;;;;5034017;28;20052;-77
2023/01/16 14:26:47;;;;;;;5.05;2.90;;;4.50;99.90;;;;;;5034614;28;20045;-77
2023/01/16 14:29:27;;;;;;;6.28;3.60;;;4.50;99.90;;;;;;5052453;28;20061;-77
2023/01/16 14:32:00;;;;;;;4.40;2.88;;;5.90;99.90;;;;;;5033243;28;20397;-77
2023/01/16 14:34:32;;;;;;;5.80;3.50;;;4.60;99.90;;;;;;5034315;28;20060;-77